sensor_id;sensor_type;location;lat;lon;timestamp;pressure;altitude;pressure_sealevel;temperature
60949;BMP280;46729;43.010;24.320;2022-08-14T00:00:07;96562.47;;;19.28
60949;BMP280;46729;43.010;24.320;2022-08-14T00:02:33;96557.22;;;19.38
60949;BMP280;46729;43.010;24.320;2022-08-14T00:04:58;96561.63;;;19.58
60949;BMP280;46729;43.010;24.320;2022-08-14T00:07:24;96550.22;;;19.67
60949;BMP280;46729;43.010;24.320;2022-08-14T00:09:50;96561.44;;;19.79
60949;BMP280;46729;43.010;24.320;2022-08-14T00:12:15;96551.59;;;19.84
60949;BMP280;46729;43.010;24.320;2022-08-14T00:14:41;96547.34;;;19.84
60949;BMP280;46729;43.010;24.320;2022-08-14T00:17:06;96543.59;;;19.84
60949;BMP280;46729;43.010;24.320;2022-08-14T00:19:32;96549.97;;;19.79
60949;BMP280;46729;43.010;24.320;2022-08-14T00:21:58;96548.22;;;19.48
60949;BMP280;46729;43.010;24.320;2022-08-14T00:24:23;96546.44;;;19.64
60949;BMP280;46729;43.010;24.320;2022-08-14T00:26:49;96542.28;;;19.37
60949;BMP280;46729;43.010;24.320;2022-08-14T00:29:14;96541.69;;;19.25
60949;BMP280;46729;43.010;24.320;2022-08-14T00:31:40;96544.88;;;19.22
60949;BMP280;46729;43.010;24.320;2022-08-14T00:34:06;96540.84;;;19.20
60949;BMP280;46729;43.010;24.320;2022-08-14T00:36:31;96534.69;;;19.14
60949;BMP280;46729;43.010;24.320;2022-08-14T00:38:57;96536.44;;;19.40
60949;BMP280;46729;43.010;24.320;2022-08-14T00:41:23;96530.06;;;19.45
60949;BMP280;46729;43.010;24.320;2022-08-14T00:43:54;96524.91;;;19.25
60949;BMP280;46729;43.010;24.320;2022-08-14T00:46:19;96526.72;;;19.14
60949;BMP280;46729;43.010;24.320;2022-08-14T00:48:45;96522.94;;;19.06
60949;BMP280;46729;43.010;24.320;2022-08-14T00:51:12;96520.88;;;19.17
60949;BMP280;46729;43.010;24.320;2022-08-14T00:53:38;96527.88;;;19.33
60949;BMP280;46729;43.010;24.320;2022-08-14T00:56:06;96525.78;;;19.45
60949;BMP280;46729;43.010;24.320;2022-08-14T00:58:32;96510.41;;;19.51
60949;BMP280;46729;43.010;24.320;2022-08-14T01:01:04;96504.00;;;19.52
60949;BMP280;46729;43.010;24.320;2022-08-14T01:03:30;96512.03;;;19.57
60949;BMP280;46729;43.010;24.320;2022-08-14T01:05:58;96504.34;;;19.65
60949;BMP280;46729;43.010;24.320;2022-08-14T01:08:26;96507.25;;;19.64
60949;BMP280;46729;43.010;24.320;2022-08-14T01:10:56;96504.25;;;19.51
60949;BMP280;46729;43.010;24.320;2022-08-14T01:13:27;96515.56;;;19.17
60949;BMP280;46729;43.010;24.320;2022-08-14T01:15:59;96506.47;;;19.13
60949;BMP280;46729;43.010;24.320;2022-08-14T01:18:26;96507.56;;;19.17
60949;BMP280;46729;43.010;24.320;2022-08-14T01:21:11;96505.78;;;19.37
60949;BMP280;46729;43.010;24.320;2022-08-14T01:23:51;96500.78;;;19.50
60949;BMP280;46729;43.010;24.320;2022-08-14T01:26:19;96501.59;;;19.51
60949;BMP280;46729;43.010;24.320;2022-08-14T01:29:23;96502.41;;;19.51
60949;BMP280;46729;43.010;24.320;2022-08-14T01:31:51;96496.19;;;19.36
60949;BMP280;46729;43.010;24.320;2022-08-14T01:34:17;96500.09;;;19.19
60949;BMP280;46729;43.010;24.320;2022-08-14T01:36:45;96504.31;;;19.10
60949;BMP280;46729;43.010;24.320;2022-08-14T01:39:13;96503.81;;;18.73
60949;BMP280;46729;43.010;24.320;2022-08-14T01:41:41;96501.47;;;18.81
60949;BMP280;46729;43.010;24.320;2022-08-14T01:44:09;96495.84;;;18.73
60949;BMP280;46729;43.010;24.320;2022-08-14T01:46:39;96499.91;;;18.85
60949;BMP280;46729;43.010;24.320;2022-08-14T01:49:08;96494.63;;;18.95
60949;BMP280;46729;43.010;24.320;2022-08-14T01:51:35;96489.47;;;18.79
60949;BMP280;46729;43.010;24.320;2022-08-14T01:54:05;96485.47;;;18.76
60949;BMP280;46729;43.010;24.320;2022-08-14T01:56:33;96493.41;;;18.71
60949;BMP280;46729;43.010;24.320;2022-08-14T01:59:17;96481.81;;;18.87
60949;BMP280;46729;43.010;24.320;2022-08-14T02:01:45;96478.72;;;19.00
60949;BMP280;46729;43.010;24.320;2022-08-14T02:04:11;96472.34;;;19.06
60949;BMP280;46729;43.010;24.320;2022-08-14T02:06:37;96471.47;;;18.90
60949;BMP280;46729;43.010;24.320;2022-08-14T02:09:07;96462.97;;;18.98
60949;BMP280;46729;43.010;24.320;2022-08-14T02:11:33;96463.25;;;18.97
60949;BMP280;46729;43.010;24.320;2022-08-14T02:14:04;96461.78;;;18.75
60949;BMP280;46729;43.010;24.320;2022-08-14T02:16:34;96462.06;;;18.78
60949;BMP280;46729;43.010;24.320;2022-08-14T02:19:08;96462.56;;;18.75
60949;BMP280;46729;43.010;24.320;2022-08-14T02:21:36;96463.66;;;18.79
60949;BMP280;46729;43.010;24.320;2022-08-14T02:24:04;96462.91;;;18.84
60949;BMP280;46729;43.010;24.320;2022-08-14T02:26:33;96462.44;;;19.01
60949;BMP280;46729;43.010;24.320;2022-08-14T02:29:05;96454.31;;;19.17
60949;BMP280;46729;43.010;24.320;2022-08-14T02:31:34;96458.88;;;19.31
60949;BMP280;46729;43.010;24.320;2022-08-14T02:34:13;96445.56;;;19.36
60949;BMP280;46729;43.010;24.320;2022-08-14T02:36:40;96446.88;;;19.29
60949;BMP280;46729;43.010;24.320;2022-08-14T02:39:08;96448.53;;;19.35
60949;BMP280;46729;43.010;24.320;2022-08-14T02:41:35;96450.94;;;19.41
60949;BMP280;46729;43.010;24.320;2022-08-14T02:44:02;96450.41;;;19.49
60949;BMP280;46729;43.010;24.320;2022-08-14T02:46:28;96454.16;;;19.43
60949;BMP280;46729;43.010;24.320;2022-08-14T02:48:55;96457.06;;;19.46
60949;BMP280;46729;43.010;24.320;2022-08-14T02:51:20;96456.25;;;19.46
60949;BMP280;46729;43.010;24.320;2022-08-14T02:53:46;96456.50;;;19.40
60949;BMP280;46729;43.010;24.320;2022-08-14T02:56:14;96463.13;;;19.27
60949;BMP280;46729;43.010;24.320;2022-08-14T02:58:44;96467.38;;;19.28
60949;BMP280;46729;43.010;24.320;2022-08-14T03:01:11;96466.38;;;19.34
60949;BMP280;46729;43.010;24.320;2022-08-14T03:03:38;96469.03;;;19.34
60949;BMP280;46729;43.010;24.320;2022-08-14T03:06:05;96467.06;;;19.15
60949;BMP280;46729;43.010;24.320;2022-08-14T03:08:32;96471.03;;;19.13
60949;BMP280;46729;43.010;24.320;2022-08-14T03:11:03;96466.94;;;18.91
60949;BMP280;46729;43.010;24.320;2022-08-14T03:13:32;96469.13;;;18.68
60949;BMP280;46729;43.010;24.320;2022-08-14T03:16:00;96473.38;;;18.64
60949;BMP280;46729;43.010;24.320;2022-08-14T03:18:26;96474.94;;;18.91
60949;BMP280;46729;43.010;24.320;2022-08-14T03:20:52;96470.09;;;18.88
60949;BMP280;46729;43.010;24.320;2022-08-14T03:23:18;96471.63;;;18.74
60949;BMP280;46729;43.010;24.320;2022-08-14T03:25:44;96466.47;;;18.63
60949;BMP280;46729;43.010;24.320;2022-08-14T03:28:11;96462.50;;;18.66
60949;BMP280;46729;43.010;24.320;2022-08-14T03:30:37;96473.56;;;18.88
60949;BMP280;46729;43.010;24.320;2022-08-14T03:33:04;96473.41;;;19.05
60949;BMP280;46729;43.010;24.320;2022-08-14T03:35:30;96475.00;;;19.10
60949;BMP280;46729;43.010;24.320;2022-08-14T03:38:11;96471.91;;;19.23
60949;BMP280;46729;43.010;24.320;2022-08-14T03:40:40;96477.97;;;19.19
60949;BMP280;46729;43.010;24.320;2022-08-14T03:43:06;96478.16;;;19.03
60949;BMP280;46729;43.010;24.320;2022-08-14T03:45:34;96476.22;;;18.88
60949;BMP280;46729;43.010;24.320;2022-08-14T03:48:09;96483.72;;;18.96
60949;BMP280;46729;43.010;24.320;2022-08-14T03:50:49;96476.75;;;18.86
60949;BMP280;46729;43.010;24.320;2022-08-14T03:53:17;96477.44;;;18.71
60949;BMP280;46729;43.010;24.320;2022-08-14T03:55:44;96475.13;;;18.80
60949;BMP280;46729;43.010;24.320;2022-08-14T03:58:10;96470.66;;;18.90
60949;BMP280;46729;43.010;24.320;2022-08-14T04:00:37;96481.31;;;18.90
60949;BMP280;46729;43.010;24.320;2022-08-14T04:03:05;96475.44;;;18.88
60949;BMP280;46729;43.010;24.320;2022-08-14T04:05:32;96480.44;;;18.80
60949;BMP280;46729;43.010;24.320;2022-08-14T04:07:58;96475.78;;;18.66
60949;BMP280;46729;43.010;24.320;2022-08-14T04:10:24;96482.75;;;18.71
60949;BMP280;46729;43.010;24.320;2022-08-14T04:12:50;96494.44;;;18.70
60949;BMP280;46729;43.010;24.320;2022-08-14T04:15:16;96485.75;;;18.80
60949;BMP280;46729;43.010;24.320;2022-08-14T04:17:45;96497.34;;;19.00
60949;BMP280;46729;43.010;24.320;2022-08-14T04:20:11;96492.66;;;19.16
60949;BMP280;46729;43.010;24.320;2022-08-14T04:22:37;96484.41;;;19.23
60949;BMP280;46729;43.010;24.320;2022-08-14T04:25:09;96485.22;;;19.28
60949;BMP280;46729;43.010;24.320;2022-08-14T04:27:35;96482.03;;;19.26
60949;BMP280;46729;43.010;24.320;2022-08-14T04:30:03;96484.47;;;19.32
60949;BMP280;46729;43.010;24.320;2022-08-14T04:32:30;96482.59;;;19.33
60949;BMP280;46729;43.010;24.320;2022-08-14T04:34:58;96490.53;;;19.18
60949;BMP280;46729;43.010;24.320;2022-08-14T04:37:24;96497.97;;;19.16
60949;BMP280;46729;43.010;24.320;2022-08-14T04:40:11;96501.75;;;19.30
60949;BMP280;46729;43.010;24.320;2022-08-14T04:42:55;96502.06;;;19.38
60949;BMP280;46729;43.010;24.320;2022-08-14T04:45:39;96502.91;;;19.44
60949;BMP280;46729;43.010;24.320;2022-08-14T04:48:10;96506.38;;;19.44
60949;BMP280;46729;43.010;24.320;2022-08-14T04:50:50;96507.13;;;19.35
60949;BMP280;46729;43.010;24.320;2022-08-14T04:53:18;96511.94;;;19.43
60949;BMP280;46729;43.010;24.320;2022-08-14T04:55:46;96516.47;;;19.42
60949;BMP280;46729;43.010;24.320;2022-08-14T04:58:24;96507.63;;;19.32
60949;BMP280;46729;43.010;24.320;2022-08-14T05:00:51;96517.03;;;18.99
60949;BMP280;46729;43.010;24.320;2022-08-14T05:03:18;96511.72;;;18.99
60949;BMP280;46729;43.010;24.320;2022-08-14T05:05:47;96506.72;;;19.07
60949;BMP280;46729;43.010;24.320;2022-08-14T05:08:13;96504.59;;;19.14
60949;BMP280;46729;43.010;24.320;2022-08-14T05:10:41;96498.81;;;19.27
60949;BMP280;46729;43.010;24.320;2022-08-14T05:13:07;96506.22;;;19.15
60949;BMP280;46729;43.010;24.320;2022-08-14T05:15:35;96519.44;;;18.65
60949;BMP280;46729;43.010;24.320;2022-08-14T05:18:08;96521.22;;;18.59
60949;BMP280;46729;43.010;24.320;2022-08-14T05:20:42;96526.88;;;18.68
60949;BMP280;46729;43.010;24.320;2022-08-14T05:23:16;96525.91;;;18.73
60949;BMP280;46729;43.010;24.320;2022-08-14T05:25:43;96537.38;;;18.79
60949;BMP280;46729;43.010;24.320;2022-08-14T05:28:42;96536.69;;;18.62
60949;BMP280;46729;43.010;24.320;2022-08-14T05:31:05;96531.69;;;18.66
60949;BMP280;46729;43.010;24.320;2022-08-14T05:33:32;96534.59;;;18.64
60949;BMP280;46729;43.010;24.320;2022-08-14T05:36:01;96527.34;;;18.60
60949;BMP280;46729;43.010;24.320;2022-08-14T05:38:29;96534.34;;;18.66
60949;BMP280;46729;43.010;24.320;2022-08-14T05:40:58;96528.56;;;18.73
60949;BMP280;46729;43.010;24.320;2022-08-14T05:43:24;96527.00;;;18.77
60949;BMP280;46729;43.010;24.320;2022-08-14T05:45:49;96537.72;;;18.87
60949;BMP280;46729;43.010;24.320;2022-08-14T05:48:15;96522.88;;;18.96
60949;BMP280;46729;43.010;24.320;2022-08-14T05:50:41;96520.28;;;19.10
60949;BMP280;46729;43.010;24.320;2022-08-14T05:53:07;96518.75;;;19.19
60949;BMP280;46729;43.010;24.320;2022-08-14T05:55:32;96522.22;;;19.20
60949;BMP280;46729;43.010;24.320;2022-08-14T05:58:02;96519.59;;;19.29
60949;BMP280;46729;43.010;24.320;2022-08-14T06:00:30;96521.75;;;19.37
60949;BMP280;46729;43.010;24.320;2022-08-14T06:02:58;96509.56;;;19.46
60949;BMP280;46729;43.010;24.320;2022-08-14T06:05:26;96517.28;;;19.47
60949;BMP280;46729;43.010;24.320;2022-08-14T06:07:52;96502.38;;;19.46
60949;BMP280;46729;43.010;24.320;2022-08-14T06:10:18;96509.28;;;19.43
60949;BMP280;46729;43.010;24.320;2022-08-14T06:12:43;96506.13;;;19.50
60949;BMP280;46729;43.010;24.320;2022-08-14T06:15:10;96507.19;;;19.49
60949;BMP280;46729;43.010;24.320;2022-08-14T06:17:51;96509.84;;;19.54
60949;BMP280;46729;43.010;24.320;2022-08-14T06:20:17;96514.06;;;19.45
60949;BMP280;46729;43.010;24.320;2022-08-14T06:22:44;96513.31;;;19.50
60949;BMP280;46729;43.010;24.320;2022-08-14T06:25:11;96514.13;;;19.50
60949;BMP280;46729;43.010;24.320;2022-08-14T06:27:39;96507.19;;;19.49
60949;BMP280;46729;43.010;24.320;2022-08-14T06:30:06;96514.13;;;19.50
60949;BMP280;46729;43.010;24.320;2022-08-14T06:32:33;96517.84;;;19.49
60949;BMP280;46729;43.010;24.320;2022-08-14T06:34:59;96520.25;;;19.51
60949;BMP280;46729;43.010;24.320;2022-08-14T06:37:25;96519.72;;;19.54
60949;BMP280;46729;43.010;24.320;2022-08-14T06:39:51;96509.84;;;19.54
60949;BMP280;46729;43.010;24.320;2022-08-14T06:42:17;96510.09;;;19.48
60949;BMP280;46729;43.010;24.320;2022-08-14T06:44:42;96507.72;;;19.51
60949;BMP280;46729;43.010;24.320;2022-08-14T06:47:09;96506.88;;;19.46
60949;BMP280;46729;43.010;24.320;2022-08-14T06:49:35;96508.25;;;19.53
60949;BMP280;46729;43.010;24.320;2022-08-14T06:52:02;96511.25;;;19.57
60949;BMP280;46729;43.010;24.320;2022-08-14T06:54:28;96515.69;;;19.46
60949;BMP280;46729;43.010;24.320;2022-08-14T06:56:53;96524.44;;;19.32
60949;BMP280;46729;43.010;24.320;2022-08-14T06:59:19;96530.00;;;19.26
60949;BMP280;46729;43.010;24.320;2022-08-14T07:01:45;96543.56;;;19.29
60949;BMP280;46729;43.010;24.320;2022-08-14T07:04:28;96541.75;;;19.35
60949;BMP280;46729;43.010;24.320;2022-08-14T07:07:37;96538.00;;;19.31
60949;BMP280;46729;43.010;24.320;2022-08-14T07:10:03;96540.91;;;19.29
60949;BMP280;46729;43.010;24.320;2022-08-14T07:12:29;96541.47;;;19.31
60949;BMP280;46729;43.010;24.320;2022-08-14T07:14:55;96550.59;;;19.45
60949;BMP280;46729;43.010;24.320;2022-08-14T07:17:21;96548.75;;;19.50
60949;BMP280;46729;43.010;24.320;2022-08-14T07:19:46;96549.56;;;19.51
60949;BMP280;46729;43.010;24.320;2022-08-14T07:22:12;96543.22;;;19.57
60949;BMP280;46729;43.010;24.320;2022-08-14T07:24:38;96544.56;;;19.64
60949;BMP280;46729;43.010;24.320;2022-08-14T07:27:03;96540.34;;;19.68
60949;BMP280;46729;43.010;24.320;2022-08-14T07:29:29;96542.22;;;19.72
60949;BMP280;46729;43.010;24.320;2022-08-14T07:31:55;96544.88;;;19.67
60949;BMP280;46729;43.010;24.320;2022-08-14T07:34:20;96546.34;;;19.49
60949;BMP280;46729;43.010;24.320;2022-08-14T07:36:46;96552.44;;;19.45
60949;BMP280;46729;43.010;24.320;2022-08-14T07:39:12;96534.09;;;19.53
60949;BMP280;46729;43.010;24.320;2022-08-14T07:41:39;96533.38;;;19.57
60949;BMP280;46729;43.010;24.320;2022-08-14T07:44:04;96537.63;;;19.58
60949;BMP280;46729;43.010;24.320;2022-08-14T07:46:30;96547.91;;;19.40
60949;BMP280;46729;43.010;24.320;2022-08-14T07:48:55;96552.97;;;19.42
60949;BMP280;46729;43.010;24.320;2022-08-14T07:51:21;96564.34;;;19.27
60949;BMP280;46729;43.010;24.320;2022-08-14T07:53:47;96565.69;;;19.30
60949;BMP280;46729;43.010;24.320;2022-08-14T07:56:12;96555.81;;;19.26
60949;BMP280;46729;43.010;24.320;2022-08-14T07:58:38;96563.00;;;19.25
60949;BMP280;46729;43.010;24.320;2022-08-14T08:01:05;96571.50;;;19.22
60949;BMP280;46729;43.010;24.320;2022-08-14T08:03:33;96583.78;;;19.23
60949;BMP280;46729;43.010;24.320;2022-08-14T08:06:00;96585.38;;;19.24
60949;BMP280;46729;43.010;24.320;2022-08-14T08:08:28;96602.00;;;19.00
60949;BMP280;46729;43.010;24.320;2022-08-14T08:10:57;96595.34;;;19.03
60949;BMP280;46729;43.010;24.320;2022-08-14T08:13:24;96587.75;;;19.21
60949;BMP280;46729;43.010;24.320;2022-08-14T08:15:55;96591.53;;;19.29
60949;BMP280;46729;43.010;24.320;2022-08-14T08:18:22;96586.50;;;19.33
60949;BMP280;46729;43.010;24.320;2022-08-14T08:20:49;96590.97;;;19.27
60949;BMP280;46729;43.010;24.320;2022-08-14T08:23:19;96583.28;;;19.26
60949;BMP280;46729;43.010;24.320;2022-08-14T08:25:47;96573.13;;;19.28
60949;BMP280;46729;43.010;24.320;2022-08-14T08:28:22;96585.88;;;19.21
60949;BMP280;46729;43.010;24.320;2022-08-14T08:30:52;96573.88;;;19.19
60949;BMP280;46729;43.010;24.320;2022-08-14T08:33:22;96576.53;;;19.19
60949;BMP280;46729;43.010;24.320;2022-08-14T08:35:49;96571.00;;;19.25
60949;BMP280;46729;43.010;24.320;2022-08-14T08:38:16;96573.13;;;19.28
60949;BMP280;46729;43.010;24.320;2022-08-14T08:40:44;96571.50;;;19.22
60949;BMP280;46729;43.010;24.320;2022-08-14T08:43:20;96565.69;;;19.30
60949;BMP280;46729;43.010;24.320;2022-08-14T08:48:41;96562.53;;;19.38
60949;BMP280;46729;43.010;24.320;2022-08-14T08:51:07;96561.22;;;19.40
60949;BMP280;46729;43.010;24.320;2022-08-14T08:53:34;96555.91;;;19.45
60949;BMP280;46729;43.010;24.320;2022-08-14T08:56:01;96550.38;;;19.51
60949;BMP280;46729;43.010;24.320;2022-08-14T08:58:27;96554.34;;;19.54
60949;BMP280;46729;43.010;24.320;2022-08-14T09:00:55;96550.38;;;19.51
60949;BMP280;46729;43.010;24.320;2022-08-14T09:03:23;96551.38;;;19.41
60949;BMP280;46729;43.010;24.320;2022-08-14T09:05:56;96553.00;;;19.46
60949;BMP280;46729;43.010;24.320;2022-08-14T09:08:25;96551.69;;;19.49
60949;BMP280;46729;43.010;24.320;2022-08-14T09:10:52;96557.22;;;19.38
60949;BMP280;46729;43.010;24.320;2022-08-14T09:13:18;96561.31;;;19.09
60949;BMP280;46729;43.010;24.320;2022-08-14T09:15:46;96544.97;;;18.96
60949;BMP280;46729;43.010;24.320;2022-08-14T09:18:13;96537.22;;;18.90
60949;BMP280;46729;43.010;24.320;2022-08-14T09:20:41;96531.44;;;19.03
60949;BMP280;46729;43.010;24.320;2022-08-14T09:23:11;96528.56;;;19.14
60949;BMP280;46729;43.010;24.320;2022-08-14T09:25:37;96533.97;;;19.24
60949;BMP280;46729;43.010;24.320;2022-08-14T09:28:06;96529.44;;;19.24
60949;BMP280;46729;43.010;24.320;2022-08-14T09:30:34;96529.31;;;19.05
60949;BMP280;46729;43.010;24.320;2022-08-14T09:42:15;96508.69;;;18.86
60949;BMP280;46729;43.010;24.320;2022-08-14T09:45:06;96509.53;;;18.91
60949;BMP280;46729;43.010;24.320;2022-08-14T09:47:52;96499.72;;;18.96
60949;BMP280;46729;43.010;24.320;2022-08-14T09:50:29;96513.09;;;19.06
60949;BMP280;46729;43.010;24.320;2022-08-14T09:53:00;96505.72;;;19.18
60949;BMP280;46729;43.010;24.320;2022-08-14T09:55:28;96506.78;;;19.22
60949;BMP280;46729;43.010;24.320;2022-08-14T09:58:17;96507.59;;;19.27
60949;BMP280;46729;43.010;24.320;2022-08-14T10:00:48;96508.44;;;19.32
60949;BMP280;46729;43.010;24.320;2022-08-14T10:03:50;96515.06;;;19.30
60949;BMP280;46729;43.010;24.320;2022-08-14T10:06:25;96517.47;;;19.31
60949;BMP280;46729;43.010;24.320;2022-08-14T10:09:12;96515.06;;;19.25
60949;BMP280;46729;43.010;24.320;2022-08-14T10:11:38;96510.75;;;19.19
60949;BMP280;46729;43.010;24.320;2022-08-14T10:14:15;96503.84;;;19.18
60949;BMP280;46729;43.010;24.320;2022-08-14T10:16:46;96499.56;;;19.17
60949;BMP280;46729;43.010;24.320;2022-08-14T10:19:17;96514.50;;;19.23
60949;BMP280;46729;43.010;24.320;2022-08-14T10:22:06;96503.84;;;19.23
60949;BMP280;46729;43.010;24.320;2022-08-14T10:24:42;96520.16;;;19.31
60949;BMP280;46729;43.010;24.320;2022-08-14T10:27:19;96541.75;;;19.35
60949;BMP280;46729;43.010;24.320;2022-08-14T10:29:55;96544.63;;;19.28
60949;BMP280;46729;43.010;24.320;2022-08-14T10:32:23;96544.38;;;19.30
60949;BMP280;46729;43.010;24.320;2022-08-14T10:35:02;96542.28;;;19.37
60949;BMP280;46729;43.010;24.320;2022-08-14T10:37:37;96542.00;;;19.33
60949;BMP280;46729;43.010;24.320;2022-08-14T10:40:30;96542.28;;;19.37
60949;BMP280;46729;43.010;24.320;2022-08-14T10:42:56;96528.94;;;19.32
60949;BMP280;46729;43.010;24.320;2022-08-14T10:45:25;96533.22;;;19.38
60949;BMP280;46729;43.010;24.320;2022-08-14T10:47:54;96533.03;;;19.44
60949;BMP280;46729;43.010;24.320;2022-08-14T10:50:30;96532.16;;;19.39
60949;BMP280;46729;43.010;24.320;2022-08-14T10:52:58;96525.28;;;19.43
60949;BMP280;46729;43.010;24.320;2022-08-14T10:55:35;96530.06;;;19.45
60949;BMP280;46729;43.010;24.320;2022-08-14T10:58:07;96530.81;;;19.36
60949;BMP280;46729;43.010;24.320;2022-08-14T11:00:35;96527.03;;;19.27
60949;BMP280;46729;43.010;24.320;2022-08-14T11:03:09;96518.53;;;19.26
60949;BMP280;46729;43.010;24.320;2022-08-14T11:05:40;96518.28;;;19.32
60949;BMP280;46729;43.010;24.320;2022-08-14T11:08:07;96514.84;;;19.36
60949;BMP280;46729;43.010;24.320;2022-08-14T11:10:42;96520.19;;;19.41
60949;BMP280;46729;43.010;24.320;2022-08-14T11:13:14;96518.41;;;19.51
60949;BMP280;46729;43.010;24.320;2022-08-14T11:15:40;96514.72;;;19.62
60949;BMP280;46729;43.010;24.320;2022-08-14T11:18:06;96511.53;;;19.65
60949;BMP280;46729;43.010;24.320;2022-08-14T11:20:32;96510.66;;;19.50
60949;BMP280;46729;43.010;24.320;2022-08-14T11:22:59;96521.56;;;19.53
60949;BMP280;46729;43.010;24.320;2022-08-14T11:25:28;96517.97;;;19.74
60949;BMP280;46729;43.010;24.320;2022-08-14T11:27:57;96518.78;;;19.79
60949;BMP280;46729;43.010;24.320;2022-08-14T11:30:28;96517.75;;;19.85
60949;BMP280;46729;43.010;24.320;2022-08-14T11:32:56;96521.22;;;19.85
60949;BMP280;46729;43.010;24.320;2022-08-14T11:35:24;96527.06;;;19.87
60949;BMP280;46729;43.010;24.320;2022-08-14T11:37:55;96533.75;;;19.90
60949;BMP280;46729;43.010;24.320;2022-08-14T11:40:23;96531.41;;;20.03
60949;BMP280;46729;43.010;24.320;2022-08-14T11:42:51;96534.56;;;20.05
60949;BMP280;46729;43.010;24.320;2022-08-14T11:45:24;96529.53;;;20.13
60949;BMP280;46729;43.010;24.320;2022-08-14T11:47:50;96527.41;;;20.15
60949;BMP280;46729;43.010;24.320;2022-08-14T11:50:19;96527.44;;;20.20
60949;BMP280;46729;43.010;24.320;2022-08-14T11:52:46;96533.31;;;20.27
60949;BMP280;46729;43.010;24.320;2022-08-14T11:55:13;96523.44;;;20.32
60949;BMP280;46729;43.010;24.320;2022-08-14T11:57:41;96529.09;;;20.36
60949;BMP280;46729;43.010;24.320;2022-08-14T12:00:11;96510.63;;;20.34
60949;BMP280;46729;43.010;24.320;2022-08-14T12:02:49;96508.00;;;20.49
60949;BMP280;46729;43.010;24.320;2022-08-14T12:05:15;96507.47;;;20.47
60949;BMP280;46729;43.010;24.320;2022-08-14T12:07:50;96508.53;;;20.61
60949;BMP280;46729;43.010;24.320;2022-08-14T12:10:17;96512.00;;;20.61
60949;BMP280;46729;43.010;24.320;2022-08-14T12:12:44;96502.41;;;20.45
60949;BMP280;46729;43.010;24.320;2022-08-14T12:15:10;96498.41;;;20.53
60949;BMP280;46729;43.010;24.320;2022-08-14T12:17:45;96502.13;;;20.52
60949;BMP280;46729;43.010;24.320;2022-08-14T12:20:13;96507.19;;;20.48
60949;BMP280;46729;43.010;24.320;2022-08-14T12:22:42;96498.94;;;20.60
60949;BMP280;46729;43.010;24.320;2022-08-14T12:25:11;96509.59;;;20.74
60949;BMP280;46729;43.010;24.320;2022-08-14T12:27:44;96500.53;;;20.90
60949;BMP280;46729;43.010;24.320;2022-08-14T12:33:02;96512.25;;;20.84
60949;BMP280;46729;43.010;24.320;2022-08-14T12:35:40;96509.59;;;20.84
60949;BMP280;46729;43.010;24.320;2022-08-14T12:38:07;96505.84;;;20.85
60949;BMP280;46729;43.010;24.320;2022-08-14T12:40:45;96499.44;;;20.91
60949;BMP280;46729;43.010;24.320;2022-08-14T12:43:11;96493.06;;;20.72
60949;BMP280;46729;43.010;24.320;2022-08-14T12:45:36;96501.06;;;20.77
60949;BMP280;46729;43.010;24.320;2022-08-14T12:48:04;96494.09;;;20.91
60949;BMP280;46729;43.010;24.320;2022-08-14T12:50:40;96499.47;;;20.81
60949;BMP280;46729;43.010;24.320;2022-08-14T12:53:07;96504.81;;;20.71
60949;BMP280;46729;43.010;24.320;2022-08-14T12:55:34;96502.38;;;20.65
60949;BMP280;46729;43.010;24.320;2022-08-14T12:58:02;96498.94;;;20.64
60949;BMP280;46729;43.010;24.320;2022-08-14T13:00:35;96495.97;;;20.66
60949;BMP280;46729;43.010;24.320;2022-08-14T13:03:03;96496.00;;;20.61
60949;BMP280;46729;43.010;24.320;2022-08-14T13:05:32;96505.84;;;20.75
60949;BMP280;46729;43.010;24.320;2022-08-14T13:08:03;96504.78;;;20.76
60949;BMP280;46729;43.010;24.320;2022-08-14T13:10:34;96504.25;;;20.69
60949;BMP280;46729;43.010;24.320;2022-08-14T13:13:00;96502.16;;;20.47
60949;BMP280;46729;43.010;24.320;2022-08-14T13:15:26;96509.34;;;20.37
60949;BMP280;46729;43.010;24.320;2022-08-14T13:17:54;96515.66;;;20.16
60949;BMP280;46729;43.010;24.320;2022-08-14T13:20:23;96518.59;;;20.10
60949;BMP280;46729;43.010;24.320;2022-08-14T13:22:49;96521.25;;;20.05
60949;BMP280;46729;43.010;24.320;2022-08-14T13:25:21;96521.25;;;19.95
60949;BMP280;46729;43.010;24.320;2022-08-14T13:27:51;96520.16;;;19.96
60949;BMP280;46729;43.010;24.320;2022-08-14T13:30:19;96530.81;;;19.96
60949;BMP280;46729;43.010;24.320;2022-08-14T13:32:45;96529.47;;;19.84
60949;BMP280;46729;43.010;24.320;2022-08-14T13:35:13;96538.28;;;19.89
60949;BMP280;46729;43.010;24.320;2022-08-14T13:37:40;96531.91;;;19.95
60949;BMP280;46729;43.010;24.320;2022-08-14T13:40:07;96542.03;;;19.98
60949;BMP280;46729;43.010;24.320;2022-08-14T13:42:33;96532.97;;;19.94
60949;BMP280;46729;43.010;24.320;2022-08-14T13:45:00;96532.44;;;19.92
60949;BMP280;46729;43.010;24.320;2022-08-14T13:47:27;96534.88;;;20.03
60949;BMP280;46729;43.010;24.320;2022-08-14T13:49:59;96526.06;;;20.08
60949;BMP280;46729;43.010;24.320;2022-08-14T13:52:29;96529.78;;;20.02
60949;BMP280;46729;43.010;24.320;2022-08-14T13:55:02;96525.44;;;19.82
60949;BMP280;46729;43.010;24.320;2022-08-14T13:57:31;96527.72;;;19.54
60949;BMP280;46729;43.010;24.320;2022-08-14T14:00:00;96520.50;;;19.54
60949;BMP280;46729;43.010;24.320;2022-08-14T14:02:28;96515.97;;;19.50
60949;BMP280;46729;43.010;24.320;2022-08-14T14:04:58;96511.97;;;19.47
60949;BMP280;46729;43.010;24.320;2022-08-14T14:07:27;96517.84;;;19.54
60949;BMP280;46729;43.010;24.320;2022-08-14T14:09:54;96501.94;;;19.64
60949;BMP280;46729;43.010;24.320;2022-08-14T14:12:22;96502.47;;;19.61
60949;BMP280;46729;43.010;24.320;2022-08-14T14:14:50;96497.97;;;19.71
60949;BMP280;46729;43.010;24.320;2022-08-14T14:17:17;96501.94;;;19.64
60949;BMP280;46729;43.010;24.320;2022-08-14T14:19:49;96495.06;;;19.78
60949;BMP280;46729;43.010;24.320;2022-08-14T14:22:16;96494.56;;;19.85